Terminal Aerodrome Forecast
Issued by NWS Albany, NY

Home | Current Version | Previous Version | Text Only | Print | Product List | Glossary On
Versions: 1 2 3 4 5 6 7 8 9 10 11 12 13 14 15
000
FTUS41 KALY 240500
TAFGFL
TAF
KGFL 240520Z 2406/2506 34010G16KT P6SM SKC
     FM241200 34014G29KT P6SM SKC
     FM242100 35017G29KT P6SM SCT250
     FM250000 34004KT P6SM SCT200=

USA.gov is the U.S. government's official web portal to all federal, state and local government web resources and services.